Hotevilla, Arizona
Current Conditions -  °F | °C
As of 12:56 AM on Sunday 23 Nov 2014 (Local Time) from KINW Reporting Station
Clear Clear  
Wind Chill: 39°   Ceiling: Unl
Heat Index: 43°   Visibility: 10mi
Dew Point: 21°   Wind: 7mph
Humidity: 42%   Direction: 270°W
Pressure: 29.94"   Gusts: NA
Location:  35.93°N, 110.67°W
Report Text: KINW 230756Z AUTO 27006KT 10SM CLR 06/M06 A2994 RMK AO2 SLP109 T00611061
Loading
Personal Weather Stations






























Interactive Weather Map New forecast layout! Learn more

10-Day Weather Forecast

Advertisements
Track Severe Weather on mobile